Time;durP1;ratioP1;P1;durP2;ratioP2;P2;SDS_P1;SDS_P2;PMS_P1;PMS_P2;Temp;Humidity;BMP_temperature;BMP_pressure;BME280_temperature;BME280_humidity;BME280_pressure;Samples;Min_cycle;Max_cycle;Signal;HPM_P1;HPM_P2
2023/05/17 00:00:12;;;;;;;5.13;1.83;;;;;;;;;;5088551;28;20020;-64
2023/05/17 00:02:39;;;;;;;1.77;1.30;;;;;;;;;;5088621;28;20080;-64
2023/05/17 00:05:06;;;;;;;2.13;1.45;;;;;;;;;;5088326;28;20028;-64
2023/05/17 00:07:33;;;;;;;2.42;1.45;;;;;;;;;;5091931;28;20024;-64
2023/05/17 00:10:00;;;;;;;2.10;1.27;;;;;;;;;;5093490;28;20383;-63
2023/05/17 00:12:26;;;;;;;4.13;2.00;;;;;;;;;;5093418;28;20073;-64
2023/05/17 00:14:53;;;;;;;2.70;1.80;;;;;;;;;;5093438;28;20035;-64
2023/05/17 00:17:20;;;;;;;2.25;1.55;;;;;;;;;;5093425;28;20028;-64
2023/05/17 00:19:47;;;;;;;2.15;1.33;;;;;;;;;;5089658;28;20493;-63
2023/05/17 00:22:13;;;;;;;1.75;1.25;;;;;;;;;;5088030;28;20039;-66
2023/05/17 00:24:40;;;;;;;2.33;1.42;;;;;;;;;;5088211;28;20020;-64
2023/05/17 00:27:07;;;;;;;1.92;1.33;;;;;;;;;;5087633;28;20114;-63
2023/05/17 00:29:33;;;;;;;2.60;1.83;;;;;;;;;;5090957;28;20466;-64
2023/05/17 00:32:00;;;;;;;2.15;1.58;;;;;;;;;;5093132;28;20675;-64
2023/05/17 00:34:27;;;;;;;4.95;2.33;;;;;;;;;;5093141;28;20020;-63
2023/05/17 00:36:54;;;;;;;4.87;1.87;;;;;;;;;;5092812;28;20095;-64
2023/05/17 00:39:20;;;;;;;2.75;1.45;;;;;;;;;;5092823;28;20374;-64
2023/05/17 00:41:47;;;;;;;4.72;2.03;;;;;;;;;;5089822;28;20136;-64
2023/05/17 00:44:14;;;;;;;5.65;2.90;;;;;;;;;;5087922;28;20024;-63
2023/05/17 00:46:41;;;;;;;3.50;1.73;;;;;;;;;;5087345;28;20020;-63
2023/05/17 00:49:07;;;;;;;1.90;1.30;;;;;;;;;;5087681;28;20024;-64
2023/05/17 00:51:35;;;;;;;5.13;1.83;;;;;;;;;;5089827;28;20465;-63
2023/05/17 00:54:03;;;;;;;2.73;2.00;;;;;;;;;;5092716;28;20026;-64
2023/05/17 00:56:31;;;;;;;3.47;2.13;;;;;;;;;;5092591;28;20022;-63
2023/05/17 00:58:58;;;;;;;3.03;1.80;;;;;;;;;;5092698;28;20030;-63
2023/05/17 01:01:26;;;;;;;1.43;1.17;;;;;;;;;;5092657;28;20470;-63
2023/05/17 01:03:53;;;;;;;3.67;1.77;;;;;;;;;;5089718;28;20032;-63
2023/05/17 01:06:20;;;;;;;4.63;2.07;;;;;;;;;;5087256;28;20020;-64
2023/05/17 01:08:47;;;;;;;1.97;1.43;;;;;;;;;;5087434;28;20024;-63
2023/05/17 01:11:23;;;;;;;5.73;2.10;;;;;;;;;;5087458;28;21518;-64
2023/05/17 01:14:02;;;;;;;4.67;1.83;;;;;;;;;;5089014;28;20050;-63
2023/05/17 01:16:48;;;;;;;10.03;1.77;;;;;;;;;;5092446;28;20048;-64
2023/05/17 01:19:26;;;;;;;2.17;1.63;;;;;;;;;;5092566;28;20027;-64
2023/05/17 01:21:58;;;;;;;2.70;1.70;;;;;;;;;;5092552;28;20529;-64
2023/05/17 01:24:44;;;;;;;2.10;1.53;;;;;;;;;;5092488;28;20024;-63
2023/05/17 01:27:13;;;;;;;3.40;1.70;;;;;;;;;;5088187;28;20028;-63
2023/05/17 01:29:40;;;;;;;11.07;1.97;;;;;;;;;;5087417;28;20482;-64
2023/05/17 01:32:08;;;;;;;2.60;1.67;;;;;;;;;;5087250;28;20034;-64
2023/05/17 01:34:35;;;;;;;3.63;1.60;;;;;;;;;;5087448;28;20062;-63
2023/05/17 01:37:02;;;;;;;2.93;1.40;;;;;;;;;;5090577;28;20016;-64
2023/05/17 01:39:28;;;;;;;2.90;2.00;;;;;;;;;;5091943;28;20483;-63
2023/05/17 01:42:15;;;;;;;10.67;1.73;;;;;;;;;;5092260;28;20483;-64
2023/05/17 01:44:57;;;;;;;3.93;2.20;;;;;;;;;;5078415;28;20072;-63
2023/05/17 01:47:29;;;;;;;4.83;2.17;;;;;;;;;;5092142;28;20094;-63
2023/05/17 01:49:57;;;;;;;3.37;2.10;;;;;;;;;;5087175;28;20024;-63
2023/05/17 01:52:50;;;;;;;3.37;1.60;;;;;;;;;;5087204;28;20058;-63
2023/05/17 01:55:23;;;;;;;1.27;0.90;;;;;;;;;;5086909;28;20101;-64
2023/05/17 01:57:52;;;;;;;2.97;1.57;;;;;;;;;;5086745;28;20020;-63
2023/05/17 02:00:19;;;;;;;2.70;1.60;;;;;;;;;;5092230;28;20030;-63
2023/05/17 02:02:46;;;;;;;2.03;1.53;;;;;;;;;;5092091;28;20032;-64
2023/05/17 02:05:13;;;;;;;1.60;1.27;;;;;;;;;;5091853;28;20021;-64
2023/05/17 02:07:40;;;;;;;2.57;1.73;;;;;;;;;;5092028;28;20099;-63
2023/05/17 02:10:14;;;;;;;4.63;3.30;;;;;;;;;;5091711;28;20475;-63
2023/05/17 02:12:41;;;;;;;28.87;2.87;;;;;;;;;;5087059;28;20462;-65
2023/05/17 02:15:10;;;;;;;4.90;2.57;;;;;;;;;;5086839;28;20058;-63
2023/05/17 02:17:40;;;;;;;3.83;2.47;;;;;;;;;;5088439;28;20036;-64
2023/05/17 02:20:08;;;;;;;6.80;1.87;;;;;;;;;;5090552;28;20028;-63
2023/05/17 02:22:35;;;;;;;2.43;1.73;;;;;;;;;;5095461;28;20051;-63
2023/05/17 02:25:01;;;;;;;5.90;2.50;;;;;;;;;;5095672;28;20081;-63
2023/05/17 02:27:28;;;;;;;4.07;1.93;;;;;;;;;;5095419;28;20016;-64
2023/05/17 02:29:55;;;;;;;3.10;1.77;;;;;;;;;;5095678;28;20055;-64
2023/05/17 02:32:22;;;;;;;3.67;2.43;;;;;;;;;;5095284;28;20038;-64
2023/05/17 02:34:48;;;;;;;4.40;2.43;;;;;;;;;;5090337;28;20024;-63
2023/05/17 02:37:15;;;;;;;5.53;2.23;;;;;;;;;;5090272;28;20025;-63
2023/05/17 02:39:42;;;;;;;6.93;3.20;;;;;;;;;;5090253;28;20040;-63
2023/05/17 02:42:09;;;;;;;11.93;3.70;;;;;;;;;;5090034;28;20386;-64
2023/05/17 02:44:35;;;;;;;5.97;2.60;;;;;;;;;;5094472;28;20101;-63
2023/05/17 02:47:02;;;;;;;6.27;3.07;;;;;;;;;;5095172;28;20055;-63
2023/05/17 02:49:29;;;;;;;3.07;2.17;;;;;;;;;;5094730;28;20050;-63
2023/05/17 02:51:56;;;;;;;7.07;3.00;;;;;;;;;;5095171;28;20059;-63
2023/05/17 02:54:22;;;;;;;2.70;1.87;;;;;;;;;;5095209;28;20039;-63
2023/05/17 02:56:49;;;;;;;9.70;2.93;;;;;;;;;;5090401;28;20028;-64
2023/05/17 02:59:16;;;;;;;3.70;2.30;;;;;;;;;;5089829;28;20024;-63
2023/05/17 03:01:43;;;;;;;7.63;1.97;;;;;;;;;;5089883;28;20035;-63
2023/05/17 03:04:10;;;;;;;3.60;2.20;;;;;;;;;;5089801;28;20031;-63
2023/05/17 03:06:37;;;;;;;8.53;2.57;;;;;;;;;;5093267;28;20093;-63
2023/05/17 03:09:05;;;;;;;2.63;2.00;;;;;;;;;;5094823;28;20050;-63
2023/05/17 03:11:32;;;;;;;4.87;3.17;;;;;;;;;;5094657;28;20431;-64
2023/05/17 03:13:59;;;;;;;3.53;2.50;;;;;;;;;;5094527;28;20110;-63
2023/05/17 03:16:25;;;;;;;3.80;2.23;;;;;;;;;;5094710;28;20016;-63
2023/05/17 03:18:52;;;;;;;4.87;2.67;;;;;;;;;;5090959;28;20024;-63
2023/05/17 03:21:19;;;;;;;2.33;1.20;;;;;;;;;;5089466;28;20028;-63
2023/05/17 03:23:46;;;;;;;2.93;2.23;;;;;;;;;;5089452;28;20059;-63
2023/05/17 03:26:12;;;;;;;4.43;3.13;;;;;;;;;;5089053;28;20475;-63
2023/05/17 03:28:39;;;;;;;4.67;3.07;;;;;;;;;;5091862;28;20027;-64
2023/05/17 03:31:06;;;;;;;13.40;2.87;;;;;;;;;;5094277;28;20638;-63
2023/05/17 03:33:33;;;;;;;6.93;2.90;;;;;;;;;;5094257;28;20023;-64
2023/05/17 03:36:00;;;;;;;3.67;2.77;;;;;;;;;;5094349;28;20076;-63
2023/05/17 03:38:26;;;;;;;19.70;2.90;;;;;;;;;;5094050;28;20077;-63
2023/05/17 03:40:53;;;;;;;8.10;2.40;;;;;;;;;;5091067;28;20127;-63
2023/05/17 03:43:20;;;;;;;7.10;3.33;;;;;;;;;;5088875;28;20062;-63
2023/05/17 03:45:47;;;;;;;4.10;2.97;;;;;;;;;;5088992;28;20062;-64
2023/05/17 03:48:13;;;;;;;5.73;2.80;;;;;;;;;;5088772;28;20070;-64
2023/05/17 03:50:40;;;;;;;3.57;2.67;;;;;;;;;;5091108;28;20130;-63
2023/05/17 03:53:07;;;;;;;3.20;1.77;;;;;;;;;;5093895;28;20050;-63
2023/05/17 03:55:34;;;;;;;3.97;2.70;;;;;;;;;;5093939;28;20046;-64
2023/05/17 03:58:00;;;;;;;4.77;2.90;;;;;;;;;;5093845;28;20028;-63
2023/05/17 04:00:27;;;;;;;7.03;2.83;;;;;;;;;;5093819;28;20047;-63
2023/05/17 04:02:54;;;;;;;3.53;2.53;;;;;;;;;;5090920;28;20383;-63
2023/05/17 04:05:21;;;;;;;4.60;3.20;;;;;;;;;;5088488;28;20031;-63
2023/05/17 04:07:47;;;;;;;10.50;4.93;;;;;;;;;;5088648;28;20020;-63
2023/05/17 04:10:15;;;;;;;4.60;2.57;;;;;;;;;;5088625;28;20055;-64
2023/05/17 04:12:41;;;;;;;3.60;1.90;;;;;;;;;;5089966;28;20108;-63
2023/05/17 04:15:08;;;;;;;5.00;2.27;;;;;;;;;;5093506;28;20024;-63
2023/05/17 04:17:35;;;;;;;2.37;1.57;;;;;;;;;;5093402;28;20039;-63
2023/05/17 04:20:03;;;;;;;3.47;2.17;;;;;;;;;;5092979;28;20063;-63
2023/05/17 04:22:30;;;;;;;2.17;1.53;;;;;;;;;;5093270;28;20028;-63
2023/05/17 04:24:56;;;;;;;1.90;1.47;;;;;;;;;;5091809;28;20502;-63
2023/05/17 04:27:23;;;;;;;4.07;2.20;;;;;;;;;;5088043;28;20020;-63
2023/05/17 04:29:50;;;;;;;3.43;1.93;;;;;;;;;;5088195;28;20028;-63
2023/05/17 04:32:20;;;;;;;1.93;1.50;;;;;;;;;;5088021;28;20032;-64
2023/05/17 04:34:46;;;;;;;1.97;1.47;;;;;;;;;;5088914;28;20420;-63
2023/05/17 04:37:14;;;;;;;4.57;1.73;;;;;;;;;;5092751;28;20055;-63
2023/05/17 04:39:41;;;;;;;2.00;1.57;;;;;;;;;;5092323;28;20061;-63
2023/05/17 04:42:08;;;;;;;5.40;2.40;;;;;;;;;;5093005;28;20028;-63
2023/05/17 04:44:35;;;;;;;2.23;1.53;;;;;;;;;;5093063;28;20470;-63
2023/05/17 04:47:02;;;;;;;3.50;2.00;;;;;;;;;;5091971;28;20032;-65
2023/05/17 04:49:29;;;;;;;3.13;1.90;;;;;;;;;;5087783;28;20020;-64
2023/05/17 04:51:56;;;;;;;3.37;2.03;;;;;;;;;;5087805;28;20024;-64
2023/05/17 04:54:23;;;;;;;3.27;2.20;;;;;;;;;;5087461;28;20103;-63
2023/05/17 04:56:50;;;;;;;4.70;2.10;;;;;;;;;;5087694;28;20131;-64
2023/05/17 04:59:17;;;;;;;2.57;1.70;;;;;;;;;;5092812;28;20437;-63
2023/05/17 05:01:43;;;;;;;3.23;2.03;;;;;;;;;;5092518;28;20020;-64
2023/05/17 05:04:10;;;;;;;5.60;2.30;;;;;;;;;;5092835;28;20016;-63
2023/05/17 05:06:37;;;;;;;20.20;2.33;;;;;;;;;;5092635;28;20049;-63
2023/05/17 05:09:04;;;;;;;3.70;1.97;;;;;;;;;;5092408;28;20032;-63
2023/05/17 05:11:31;;;;;;;3.50;2.50;;;;;;;;;;5087517;28;20031;-63
2023/05/17 05:13:58;;;;;;;4.43;2.37;;;;;;;;;;5087137;28;20401;-63
2023/05/17 05:16:25;;;;;;;3.73;1.90;;;;;;;;;;5087574;28;20012;-63
2023/05/17 05:18:51;;;;;;;4.63;2.47;;;;;;;;;;5087662;28;20024;-63
2023/05/17 05:21:18;;;;;;;2.63;2.07;;;;;;;;;;5092202;28;20027;-63
2023/05/17 05:23:45;;;;;;;3.60;2.20;;;;;;;;;;5092491;28;20476;-63
2023/05/17 05:26:11;;;;;;;3.40;2.10;;;;;;;;;;5092400;28;20031;-63
2023/05/17 05:28:38;;;;;;;2.70;2.00;;;;;;;;;;5092400;28;20022;-63
2023/05/17 05:31:05;;;;;;;3.67;2.40;;;;;;;;;;5091839;28;20052;-63
2023/05/17 05:33:32;;;;;;;3.73;2.00;;;;;;;;;;5087654;28;20027;-63
2023/05/17 05:35:59;;;;;;;4.53;2.90;;;;;;;;;;5087288;28;20024;-63
2023/05/17 05:38:26;;;;;;;2.67;2.03;;;;;;;;;;5087236;28;20074;-63
2023/05/17 05:40:52;;;;;;;4.67;2.77;;;;;;;;;;5087051;28;20032;-63
2023/05/17 05:43:19;;;;;;;5.23;2.60;;;;;;;;;;5091262;28;20044;-63
2023/05/17 05:45:46;;;;;;;2.90;2.17;;;;;;;;;;5092283;28;20040;-63
2023/05/17 05:48:13;;;;;;;2.77;2.00;;;;;;;;;;5091971;28;20058;-63
2023/05/17 05:50:44;;;;;;;4.93;2.33;;;;;;;;;;5092148;28;20073;-63
2023/05/17 05:53:11;;;;;;;3.37;2.20;;;;;;;;;;5096101;28;20035;-63
2023/05/17 05:55:41;;;;;;;4.70;1.97;;;;;;;;;;5092090;28;20370;-63
2023/05/17 05:58:08;;;;;;;3.50;2.30;;;;;;;;;;5091217;28;20036;-63
2023/05/17 06:00:36;;;;;;;2.63;1.93;;;;;;;;;;5091186;28;20078;-62
2023/05/17 06:03:02;;;;;;;3.50;2.40;;;;;;;;;;5090883;28;20039;-64
2023/05/17 06:05:29;;;;;;;2.13;1.70;;;;;;;;;;5093887;28;20028;-63
2023/05/17 06:07:56;;;;;;;3.93;2.07;;;;;;;;;;5096150;28;20101;-63
2023/05/17 06:10:23;;;;;;;3.03;2.27;;;;;;;;;;5095981;28;20037;-63
2023/05/17 06:12:50;;;;;;;3.97;1.60;;;;;;;;;;5095972;28;20378;-62
2023/05/17 06:15:16;;;;;;;25.17;2.97;;;;;;;;;;5095922;28;20104;-63
2023/05/17 06:17:43;;;;;;;17.53;3.60;;;;;;;;;;5092127;28;20073;-63
2023/05/17 06:20:10;;;;;;;7.30;4.67;;;;;;;;;;5090812;28;20074;-63
2023/05/17 06:22:37;;;;;;;8.60;4.43;;;;;;;;;;5090314;28;20036;-63
2023/05/17 06:25:04;;;;;;;6.17;4.63;;;;;;;;;;5090687;28;20108;-63
2023/05/17 06:27:32;;;;;;;11.93;7.30;;;;;;;;;;5093391;28;20021;-63
2023/05/17 06:29:59;;;;;;;12.30;6.50;;;;;;;;;;5095715;28;20103;-63
2023/05/17 06:32:28;;;;;;;8.27;4.07;;;;;;;;;;5095639;28;20024;-63
2023/05/17 06:34:55;;;;;;;5.90;3.77;;;;;;;;;;5095489;28;20103;-62
2023/05/17 06:37:22;;;;;;;4.73;2.77;;;;;;;;;;5095578;28;20024;-62
2023/05/17 06:39:52;;;;;;;6.43;2.73;;;;;;;;;;5091129;28;20035;-63
2023/05/17 06:42:19;;;;;;;2.63;1.93;;;;;;;;;;5090232;28;20107;-63
2023/05/17 06:44:45;;;;;;;2.53;1.93;;;;;;;;;;5090074;28;20082;-63
2023/05/17 06:47:12;;;;;;;5.27;3.07;;;;;;;;;;5090263;28;20028;-63
2023/05/17 06:49:39;;;;;;;5.17;3.20;;;;;;;;;;5092596;28;20081;-63
2023/05/17 06:52:06;;;;;;;7.03;3.80;;;;;;;;;;5095217;28;20024;-63
2023/05/17 06:54:32;;;;;;;6.77;3.00;;;;;;;;;;5095090;28;20536;-63
2023/05/17 06:57:00;;;;;;;4.83;2.57;;;;;;;;;;5094531;28;20024;-63
2023/05/17 06:59:27;;;;;;;3.17;2.20;;;;;;;;;;5095135;28;20064;-63
2023/05/17 07:01:54;;;;;;;2.93;2.13;;;;;;;;;;5092173;28;20055;-63
2023/05/17 07:04:20;;;;;;;3.60;2.23;;;;;;;;;;5089371;28;20532;-63
2023/05/17 07:06:47;;;;;;;6.20;2.83;;;;;;;;;;5089765;28;20028;-63
2023/05/17 07:09:14;;;;;;;3.77;2.47;;;;;;;;;;5089793;28;20103;-64
2023/05/17 07:11:41;;;;;;;2.50;1.57;;;;;;;;;;5091662;28;20039;-62
2023/05/17 07:14:07;;;;;;;3.43;2.43;;;;;;;;;;5094382;28;20020;-63
2023/05/17 07:16:34;;;;;;;4.43;2.83;;;;;;;;;;5094471;28;20020;-62
2023/05/17 07:19:01;;;;;;;7.93;3.20;;;;;;;;;;5094588;28;20035;-63
2023/05/17 07:21:28;;;;;;;3.50;2.00;;;;;;;;;;5094585;28;20043;-62
2023/05/17 07:23:55;;;;;;;2.70;1.77;;;;;;;;;;5092524;28;20028;-62
2023/05/17 07:26:22;;;;;;;5.93;2.97;;;;;;;;;;5089612;28;20024;-62
2023/05/17 07:28:49;;;;;;;6.43;4.10;;;;;;;;;;5089283;28;20022;-63
2023/05/17 07:31:16;;;;;;;13.90;5.77;;;;;;;;;;5089404;28;20413;-62
2023/05/17 07:33:42;;;;;;;5.23;3.77;;;;;;;;;;5090039;28;20022;-62
2023/05/17 07:36:09;;;;;;;5.10;3.00;;;;;;;;;;5094246;28;20020;-62
2023/05/17 07:38:36;;;;;;;10.63;5.83;;;;;;;;;;5094290;28;20052;-62
2023/05/17 07:41:08;;;;;;;16.00;8.97;;;;;;;;;;5094275;28;20067;-63
2023/05/17 07:43:36;;;;;;;10.03;6.13;;;;;;;;;;5094185;28;20024;-62
2023/05/17 07:46:03;;;;;;;10.67;6.27;;;;;;;;;;5092438;28;20103;-62
2023/05/17 07:48:30;;;;;;;15.70;7.57;;;;;;;;;;5088572;28;20411;-62
2023/05/17 07:50:57;;;;;;;10.23;6.87;;;;;;;;;;5089067;28;20526;-62
2023/05/17 07:53:24;;;;;;;12.53;6.47;;;;;;;;;;5089001;28;20413;-62
2023/05/17 07:55:50;;;;;;;12.27;7.53;;;;;;;;;;5089828;28;20016;-62
2023/05/17 07:58:17;;;;;;;12.23;7.07;;;;;;;;;;5093815;28;20028;-62
2023/05/17 08:00:44;;;;;;;6.77;4.70;;;;;;;;;;5093920;28;20021;-62
2023/05/17 08:03:11;;;;;;;5.80;3.80;;;;;;;;;;5093790;28;20111;-62
2023/05/17 08:05:38;;;;;;;13.37;6.47;;;;;;;;;;5093294;28;20032;-62
2023/05/17 08:08:05;;;;;;;19.63;4.80;;;;;;;;;;5092415;28;20020;-63
2023/05/17 08:10:31;;;;;;;6.90;4.67;;;;;;;;;;5088552;28;20020;-63
2023/05/17 08:12:58;;;;;;;5.73;3.80;;;;;;;;;;5088505;28;20035;-62
2023/05/17 08:15:25;;;;;;;3.27;2.63;;;;;;;;;;5087633;28;20498;-63
2023/05/17 08:17:52;;;;;;;7.77;4.37;;;;;;;;;;5088770;28;20490;-63
2023/05/17 08:20:19;;;;;;;5.53;4.57;;;;;;;;;;5093409;28;20020;-63
2023/05/17 08:22:45;;;;;;;4.33;2.90;;;;;;;;;;5093276;28;20032;-63
2023/05/17 08:25:12;;;;;;;4.40;3.00;;;;;;;;;;5092883;28;20024;-63
2023/05/17 08:27:39;;;;;;;6.90;3.17;;;;;;;;;;5093395;28;20150;-63
2023/05/17 08:30:06;;;;;;;3.40;2.77;;;;;;;;;;5092887;28;20030;-64
2023/05/17 08:32:33;;;;;;;4.23;3.33;;;;;;;;;;5088150;28;20027;-62
2023/05/17 08:35:00;;;;;;;8.47;2.90;;;;;;;;;;5088264;28;20057;-62
2023/05/17 08:37:26;;;;;;;4.80;3.33;;;;;;;;;;5088014;28;20375;-63
2023/05/17 08:39:53;;;;;;;5.00;4.00;;;;;;;;;;5087904;28;20043;-63
2023/05/17 08:42:25;;;;;;;21.17;3.67;;;;;;;;;;5092289;28;20117;-62
2023/05/17 08:44:53;;;;;;;7.80;3.57;;;;;;;;;;5093078;28;20853;-62
2023/05/17 08:47:30;;;;;;;5.77;4.17;;;;;;;;;;5092964;28;20024;-62
2023/05/17 08:50:04;;;;;;;3.43;2.53;;;;;;;;;;5092967;28;20050;-63
2023/05/17 08:52:31;;;;;;;4.90;3.57;;;;;;;;;;5092236;28;20021;-62
2023/05/17 08:55:04;;;;;;;4.77;3.07;;;;;;;;;;5087538;28;20471;-62
2023/05/17 08:57:31;;;;;;;3.53;2.50;;;;;;;;;;5087530;28;20024;-63
2023/05/17 09:00:14;;;;;;;4.60;3.17;;;;;;;;;;5087678;28;20024;-62
2023/05/17 09:02:43;;;;;;;7.47;2.50;;;;;;;;;;5088177;28;20050;-63
2023/05/17 09:05:12;;;;;;;9.93;4.73;;;;;;;;;;5092374;28;20028;-63
2023/05/17 09:07:38;;;;;;;4.67;2.13;;;;;;;;;;5091388;28;20031;-62
2023/05/17 09:10:06;;;;;;;2.10;1.50;;;;;;;;;;5092622;28;20036;-62
2023/05/17 09:12:36;;;;;;;2.67;2.10;;;;;;;;;;5092715;28;20485;-64
2023/05/17 09:15:16;;;;;;;3.83;2.53;;;;;;;;;;5091171;28;20020;-62
2023/05/17 09:17:43;;;;;;;3.63;2.17;;;;;;;;;;5087205;28;20028;-62
2023/05/17 09:20:10;;;;;;;2.77;1.90;;;;;;;;;;5087446;28;20434;-62
2023/05/17 09:22:37;;;;;;;3.40;2.47;;;;;;;;;;5087626;28;20464;-62
2023/05/17 09:25:04;;;;;;;2.70;1.90;;;;;;;;;;5088422;28;20475;-62
2023/05/17 09:27:32;;;;;;;2.73;2.20;;;;;;;;;;5098269;28;20048;-62
2023/05/17 09:29:58;;;;;;;1.97;1.53;;;;;;;;;;5099235;28;20028;-62
2023/05/17 09:32:27;;;;;;;2.87;1.60;;;;;;;;;;5098967;28;20024;-63
2023/05/17 09:34:56;;;;;;;3.27;2.03;;;;;;;;;;5098769;28;20028;-62
2023/05/17 09:37:25;;;;;;;4.33;2.10;;;;;;;;;;5098041;28;20055;-62
2023/05/17 09:39:51;;;;;;;4.67;2.43;;;;;;;;;;5093914;28;20055;-62
2023/05/17 09:42:18;;;;;;;5.23;2.43;;;;;;;;;;5093955;28;20031;-64
2023/05/17 09:44:58;;;;;;;5.37;3.27;;;;;;;;;;5093936;28;20032;-62
2023/05/17 09:47:29;;;;;;;4.20;2.17;;;;;;;;;;5094716;28;20398;-62
2023/05/17 09:50:01;;;;;;;4.50;2.77;;;;;;;;;;5098899;28;20084;-62
2023/05/17 09:52:31;;;;;;;3.00;2.33;;;;;;;;;;5099155;28;20097;-62
2023/05/17 09:54:58;;;;;;;12.37;2.20;;;;;;;;;;5099009;28;20422;-62
2023/05/17 09:57:29;;;;;;;5.83;2.60;;;;;;;;;;5098972;28;20121;-62
2023/05/17 09:59:56;;;;;;;7.07;2.33;;;;;;;;;;5097121;28;20105;-62
2023/05/17 10:02:27;;;;;;;3.33;2.60;;;;;;;;;;5093377;28;20032;-63
2023/05/17 10:04:56;;;;;;;2.70;2.00;;;;;;;;;;5093922;28;20024;-63
2023/05/17 10:07:24;;;;;;;6.50;2.97;;;;;;;;;;5093786;28;20027;-62
2023/05/17 10:09:52;;;;;;;3.23;2.37;;;;;;;;;;5094842;28;20057;-63
2023/05/17 10:12:21;;;;;;;3.83;2.23;;;;;;;;;;5098958;28;20024;-62
2023/05/17 10:14:48;;;;;;;3.03;2.37;;;;;;;;;;5098627;28;20035;-64
2023/05/17 10:17:16;;;;;;;3.20;2.63;;;;;;;;;;5098385;28;20031;-62
2023/05/17 10:19:43;;;;;;;2.83;2.10;;;;;;;;;;5098595;28;20020;-62
2023/05/17 10:22:10;;;;;;;6.40;3.33;;;;;;;;;;5097084;28;20028;-63
2023/05/17 10:24:37;;;;;;;6.23;2.27;;;;;;;;;;5093473;28;20024;-62
2023/05/17 10:27:06;;;;;;;3.77;1.97;;;;;;;;;;5093745;28;20371;-62
2023/05/17 10:29:33;;;;;;;3.60;2.43;;;;;;;;;;5093600;28;20103;-62
2023/05/17 10:32:04;;;;;;;3.83;2.00;;;;;;;;;;5094398;28;20505;-62
2023/05/17 10:34:31;;;;;;;9.23;2.00;;;;;;;;;;5098594;28;20103;-62
2023/05/17 10:36:59;;;;;;;3.43;2.30;;;;;;;;;;5098747;28;20494;-62
2023/05/17 10:39:26;;;;;;;2.90;2.07;;;;;;;;;;5094295;28;20032;-62
2023/05/17 10:41:54;;;;;;;3.83;2.93;;;;;;;;;;5095128;28;20103;-62
2023/05/17 10:44:21;;;;;;;3.70;2.50;;;;;;;;;;5093882;28;20035;-62
2023/05/17 10:46:54;;;;;;;3.73;2.10;;;;;;;;;;5090254;28;20036;-62
2023/05/17 10:49:21;;;;;;;3.00;2.50;;;;;;;;;;5090161;28;20023;-62
2023/05/17 10:51:47;;;;;;;2.20;1.83;;;;;;;;;;5090126;28;20028;-63
2023/05/17 10:54:17;;;;;;;5.53;3.27;;;;;;;;;;5091135;28;20077;-62
2023/05/17 10:56:51;;;;;;;2.80;2.30;;;;;;;;;;5095134;28;20020;-62
2023/05/17 10:59:20;;;;;;;3.70;2.27;;;;;;;;;;5094843;28;20051;-62
2023/05/17 11:02:08;;;;;;;3.37;2.33;;;;;;;;;;5094435;28;20467;-63
2023/05/17 11:04:42;;;;;;;3.53;2.50;;;;;;;;;;5094821;28;20375;-62
2023/05/17 11:07:20;;;;;;;4.77;3.13;;;;;;;;;;5092400;28;20044;-62
2023/05/17 11:09:51;;;;;;;2.97;2.47;;;;;;;;;;5089343;28;20024;-62
2023/05/17 11:12:27;;;;;;;3.60;2.10;;;;;;;;;;5089620;28;20028;-62
2023/05/17 11:14:55;;;;;;;3.70;2.70;;;;;;;;;;5089619;28;20020;-62
2023/05/17 11:17:24;;;;;;;2.57;2.10;;;;;;;;;;5092102;28;20401;-63
2023/05/17 11:19:57;;;;;;;4.97;2.67;;;;;;;;;;5094611;28;20012;-64
2023/05/17 11:22:27;;;;;;;3.70;2.57;;;;;;;;;;5094416;28;20035;-62
2023/05/17 11:24:57;;;;;;;4.63;2.43;;;;;;;;;;5094581;28;20028;-62
2023/05/17 11:27:27;;;;;;;3.50;2.27;;;;;;;;;;5094623;28;20024;-62
2023/05/17 11:29:55;;;;;;;2.77;2.33;;;;;;;;;;5090977;28;20032;-62
2023/05/17 11:32:32;;;;;;;4.30;2.63;;;;;;;;;;5089132;28;20023;-62
2023/05/17 11:35:02;;;;;;;6.13;3.03;;;;;;;;;;5089219;28;20020;-63
2023/05/17 11:37:30;;;;;;;3.30;2.40;;;;;;;;;;5089296;28;20462;-63
2023/05/17 11:40:03;;;;;;;3.53;2.47;;;;;;;;;;5092315;28;20479;-62
2023/05/17 11:42:30;;;;;;;10.13;2.53;;;;;;;;;;5094067;28;20032;-62
2023/05/17 11:44:57;;;;;;;3.40;2.43;;;;;;;;;;5094299;28;20031;-62
2023/05/17 11:47:25;;;;;;;5.17;2.60;;;;;;;;;;5093708;28;20024;-62
2023/05/17 11:49:52;;;;;;;6.77;3.77;;;;;;;;;;5093739;28;20024;-62
2023/05/17 11:52:18;;;;;;;3.83;2.43;;;;;;;;;;5090164;28;20020;-62
2023/05/17 11:54:45;;;;;;;9.17;3.00;;;;;;;;;;5088854;28;20050;-63
2023/05/17 11:57:16;;;;;;;4.03;2.73;;;;;;;;;;5088719;28;20032;-63
2023/05/17 11:59:43;;;;;;;4.87;3.13;;;;;;;;;;5088602;28;20031;-62
2023/05/17 12:02:10;;;;;;;3.97;2.70;;;;;;;;;;5091543;28;20032;-62
2023/05/17 12:04:37;;;;;;;6.93;2.67;;;;;;;;;;5093404;28;20356;-62
2023/05/17 12:07:04;;;;;;;3.53;2.40;;;;;;;;;;5093484;28;20063;-62
2023/05/17 12:09:31;;;;;;;2.77;2.20;;;;;;;;;;5093707;28;20387;-62
2023/05/17 12:11:58;;;;;;;5.70;2.77;;;;;;;;;;5093644;28;20020;-63
2023/05/17 12:14:25;;;;;;;4.23;2.50;;;;;;;;;;5090125;28;20081;-62
2023/05/17 12:16:55;;;;;;;3.33;2.03;;;;;;;;;;5088434;28;20056;-62
2023/05/17 12:19:23;;;;;;;7.90;2.80;;;;;;;;;;5087940;28;20020;-63
2023/05/17 12:21:50;;;;;;;3.50;2.43;;;;;;;;;;5088119;28;20119;-62
2023/05/17 12:24:17;;;;;;;5.70;2.80;;;;;;;;;;5090773;28;20020;-63
2023/05/17 12:26:45;;;;;;;5.23;3.40;;;;;;;;;;5093327;28;20381;-62
2023/05/17 12:29:16;;;;;;;3.13;2.40;;;;;;;;;;5093192;28;20016;-62
2023/05/17 12:31:44;;;;;;;2.90;2.40;;;;;;;;;;5093217;28;20016;-62
2023/05/17 12:34:12;;;;;;;3.47;2.40;;;;;;;;;;5092647;28;20020;-62
2023/05/17 12:36:40;;;;;;;3.43;1.97;;;;;;;;;;5089831;28;20012;-62
2023/05/17 12:39:08;;;;;;;3.60;2.63;;;;;;;;;;5087883;28;20032;-62
2023/05/17 12:41:38;;;;;;;9.23;3.77;;;;;;;;;;5087904;28;20035;-62
2023/05/17 12:44:07;;;;;;;8.23;4.00;;;;;;;;;;5087861;28;20488;-62
2023/05/17 12:46:34;;;;;;;4.07;2.57;;;;;;;;;;5090650;28;20028;-62
2023/05/17 12:49:08;;;;;;;4.47;3.33;;;;;;;;;;5092683;28;20042;-62
2023/05/17 12:51:42;;;;;;;4.97;3.47;;;;;;;;;;5092977;28;20016;-62
2023/05/17 12:54:09;;;;;;;6.20;3.10;;;;;;;;;;5092861;28;20024;-62
2023/05/17 12:56:35;;;;;;;3.57;2.63;;;;;;;;;;5092837;28;20027;-62
2023/05/17 12:59:07;;;;;;;14.10;3.30;;;;;;;;;;5089153;28;20020;-62
2023/05/17 13:01:38;;;;;;;5.60;2.80;;;;;;;;;;5086781;28;20485;-63
2023/05/17 13:04:05;;;;;;;3.10;2.50;;;;;;;;;;5087551;28;20028;-62
2023/05/17 13:06:49;;;;;;;8.43;3.27;;;;;;;;;;5087381;28;20503;-63
2023/05/17 13:09:17;;;;;;;3.40;2.70;;;;;;;;;;5091160;28;20492;-62
2023/05/17 13:11:50;;;;;;;3.87;2.83;;;;;;;;;;5092543;28;20557;-62
2023/05/17 13:14:32;;;;;;;4.83;3.13;;;;;;;;;;5092496;28;20090;-62
2023/05/17 13:16:59;;;;;;;6.83;3.30;;;;;;;;;;5092495;28;20048;-62
2023/05/17 13:19:26;;;;;;;3.60;2.53;;;;;;;;;;5092563;28;20470;-63
2023/05/17 13:21:53;;;;;;;10.37;2.83;;;;;;;;;;5087538;28;20074;-63
2023/05/17 13:24:19;;;;;;;4.30;2.43;;;;;;;;;;5087542;28;20024;-63
2023/05/17 13:26:46;;;;;;;5.00;2.27;;;;;;;;;;5087066;28;20032;-62
2023/05/17 13:29:13;;;;;;;10.07;2.80;;;;;;;;;;5087493;28;20028;-63
2023/05/17 13:31:41;;;;;;;2.87;2.23;;;;;;;;;;5091202;28;20383;-62
2023/05/17 13:34:08;;;;;;;2.90;2.10;;;;;;;;;;5092417;28;20030;-62
2023/05/17 13:36:35;;;;;;;6.90;2.17;;;;;;;;;;5092286;28;20124;-63
2023/05/17 13:39:03;;;;;;;5.53;2.30;;;;;;;;;;5092233;28;20497;-63
2023/05/17 13:41:30;;;;;;;4.17;2.53;;;;;;;;;;5091888;28;20463;-64
2023/05/17 13:43:56;;;;;;;4.93;2.63;;;;;;;;;;5087669;28;20071;-63
2023/05/17 13:46:23;;;;;;;4.83;2.90;;;;;;;;;;5087333;28;20093;-63
2023/05/17 13:48:50;;;;;;;5.10;3.43;;;;;;;;;;5087020;28;20020;-63
2023/05/17 13:51:17;;;;;;;5.33;2.93;;;;;;;;;;5087194;28;20378;-64
2023/05/17 13:53:43;;;;;;;3.90;2.40;;;;;;;;;;5090934;28;20054;-63
2023/05/17 13:56:10;;;;;;;3.80;3.07;;;;;;;;;;5092012;28;20032;-63
2023/05/17 13:58:37;;;;;;;3.40;2.50;;;;;;;;;;5091837;28;20024;-62
2023/05/17 14:01:05;;;;;;;3.23;2.20;;;;;;;;;;5092111;28;20378;-63
2023/05/17 14:03:31;;;;;;;8.63;3.60;;;;;;;;;;5091989;28;20066;-62
2023/05/17 14:05:58;;;;;;;4.03;2.73;;;;;;;;;;5087831;28;20027;-63
2023/05/17 14:08:25;;;;;;;6.63;2.23;;;;;;;;;;5086748;28;20100;-63
2023/05/17 14:10:52;;;;;;;2.37;1.70;;;;;;;;;;5086892;28;20020;-63
2023/05/17 14:13:19;;;;;;;20.37;2.40;;;;;;;;;;5087799;28;20035;-63
2023/05/17 14:15:45;;;;;;;4.10;2.57;;;;;;;;;;5093418;28;20028;-63
2023/05/17 14:18:12;;;;;;;2.83;2.10;;;;;;;;;;5095848;28;20020;-63
2023/05/17 14:20:39;;;;;;;2.10;1.70;;;;;;;;;;5095887;28;20546;-63
2023/05/17 14:23:06;;;;;;;5.47;3.07;;;;;;;;;;5095438;28;20127;-63
2023/05/17 14:25:32;;;;;;;2.03;1.57;;;;;;;;;;5095691;28;20024;-64
2023/05/17 14:27:59;;;;;;;1.43;1.30;;;;;;;;;;5092403;28;20101;-63
2023/05/17 14:30:26;;;;;;;1.90;1.50;;;;;;;;;;5090430;28;20483;-63
2023/05/17 14:32:53;;;;;;;4.17;2.17;;;;;;;;;;5089965;28;20027;-63
2023/05/17 14:35:20;;;;;;;4.63;2.47;;;;;;;;;;5090370;28;20542;-63
2023/05/17 14:37:46;;;;;;;3.27;2.00;;;;;;;;;;5093071;28;20016;-64
2023/05/17 14:40:13;;;;;;;2.27;1.57;;;;;;;;;;5095344;28;20032;-64
2023/05/17 14:42:40;;;;;;;2.07;1.77;;;;;;;;;;5095042;28;20068;-63
2023/05/17 14:45:07;;;;;;;3.27;2.20;;;;;;;;;;5095257;28;20104;-63